createdAt,value
2022-10-30T00:01:16.548Z,2.97
2022-10-30T00:03:44.391Z,2.70
2022-10-30T00:06:12.265Z,3.03
2022-10-30T00:08:40.168Z,3.33
2022-10-30T00:11:09.470Z,2.67
2022-10-30T00:13:37.724Z,3.00
2022-10-30T00:16:09.541Z,2.80
2022-10-30T00:18:38.400Z,3.63
2022-10-30T00:21:08.087Z,2.57
2022-10-30T00:23:35.940Z,2.63
2022-10-30T00:26:05.319Z,3.23
2022-10-30T00:28:33.266Z,3.00
2022-10-30T00:31:01.769Z,2.77
2022-10-30T00:33:31.326Z,3.63
2022-10-30T00:35:59.344Z,2.20
2022-10-30T00:38:27.509Z,3.40
2022-10-30T00:40:55.379Z,3.07
2022-10-30T00:43:30.059Z,2.90
2022-10-30T00:46:01.024Z,3.37
2022-10-30T00:48:30.468Z,3.23
2022-10-30T00:51:00.744Z,2.77
2022-10-30T00:53:29.851Z,2.90
2022-10-30T00:56:02.424Z,3.43
2022-10-30T00:58:34.210Z,3.20
2022-10-30T01:01:05.229Z,3.00
2022-10-30T01:03:36.696Z,2.83
2022-10-30T01:06:08.731Z,3.13
2022-10-30T01:08:37.297Z,2.73
2022-10-30T01:11:06.866Z,3.60
2022-10-30T01:13:36.679Z,2.50
2022-10-30T01:16:25.706Z,2.70
2022-10-30T01:19:04.456Z,3.23
2022-10-30T01:21:48.479Z,3.47
2022-10-30T01:24:35.413Z,3.13
2022-10-30T01:27:23.130Z,3.13
2022-10-30T01:29:59.561Z,3.00
2022-10-30T01:32:45.123Z,3.30
2022-10-30T01:35:21.456Z,2.70
2022-10-30T01:37:56.264Z,2.70
2022-10-30T01:40:24.499Z,3.47
2022-10-30T01:42:54.085Z,3.53
2022-10-30T01:45:28.040Z,2.90
2022-10-30T01:48:20.144Z,2.70
2022-10-30T01:50:58.294Z,2.53
2022-10-30T01:53:38.119Z,2.33
2022-10-30T01:56:20.627Z,3.33
2022-10-30T01:58:55.923Z,2.63
2022-10-30T02:01:25.563Z,3.13
2022-10-30T02:03:53.829Z,4.20
2022-10-30T02:06:23.055Z,3.97
2022-10-30T02:08:50.846Z,2.27
2022-10-30T02:11:19.735Z,2.83
2022-10-30T02:13:47.647Z,3.60
2022-10-30T02:16:15.470Z,2.20
2022-10-30T02:21:17.626Z,3.47
2022-10-30T02:23:45.470Z,5.57
2022-10-30T02:26:13.374Z,4.30
2022-10-30T02:28:41.176Z,3.90
2022-10-30T02:31:09.033Z,4.00
2022-10-30T02:33:36.859Z,3.77
2022-10-30T02:36:05.015Z,4.37
2022-10-30T02:38:34.147Z,3.63
2022-10-30T02:41:01.926Z,3.70
2022-10-30T02:43:29.747Z,4.13
2022-10-30T02:45:57.572Z,4.37
2022-10-30T02:48:25.413Z,3.70
2022-10-30T02:50:53.197Z,3.70
2022-10-30T02:53:21.028Z,3.90
2022-10-30T02:55:50.188Z,3.80
2022-10-30T02:58:17.988Z,3.40
2022-10-30T03:00:45.874Z,3.90
2022-10-30T03:03:13.789Z,2.50
2022-10-30T03:05:41.608Z,3.23
2022-10-30T03:08:09.401Z,3.63
2022-10-30T03:10:37.279Z,3.10
2022-10-30T03:13:06.420Z,3.63
2022-10-30T03:15:34.212Z,4.17
2022-10-30T03:18:02.026Z,3.90
2022-10-30T03:20:29.820Z,3.53
2022-10-30T03:22:57.704Z,3.50
2022-10-30T03:25:25.544Z,2.80
2022-10-30T03:27:53.863Z,2.53
2022-10-30T03:30:23.025Z,3.50
2022-10-30T03:32:50.825Z,3.50
2022-10-30T03:35:18.698Z,5.23
2022-10-30T03:37:46.483Z,3.70
2022-10-30T03:40:14.304Z,3.00
2022-10-30T03:42:42.152Z,3.23
2022-10-30T03:45:10.649Z,3.30
2022-10-30T03:47:42.173Z,2.90
2022-10-30T03:50:10.408Z,3.03
2022-10-30T03:52:38.274Z,3.53
2022-10-30T03:55:07.064Z,3.50
2022-10-30T03:57:37.795Z,3.03
2022-10-30T04:00:06.984Z,3.90
2022-10-30T04:02:34.821Z,3.07
2022-10-30T04:05:04.068Z,3.03
2022-10-30T04:07:31.913Z,3.07
2022-10-30T04:09:59.710Z,4.07
2022-10-30T04:12:27.557Z,3.33
2022-10-30T04:14:56.800Z,3.20
2022-10-30T04:17:24.695Z,3.10
2022-10-30T04:19:52.514Z,2.90
2022-10-30T04:22:21.770Z,3.70
2022-10-30T04:24:50.004Z,4.00
2022-10-30T04:27:18.399Z,3.47
2022-10-30T04:29:46.675Z,3.00
2022-10-30T04:32:14.689Z,2.80
2022-10-30T04:34:42.507Z,2.90
2022-10-30T04:37:10.294Z,2.70
2022-10-30T04:39:42.367Z,2.97
2022-10-30T04:42:13.346Z,3.43
2022-10-30T04:44:41.155Z,3.37
2022-10-30T04:47:08.953Z,2.43
2022-10-30T04:49:36.771Z,3.93
2022-10-30T04:52:04.697Z,3.23
2022-10-30T04:54:32.504Z,3.73
2022-10-30T04:57:01.659Z,3.53
2022-10-30T04:59:29.485Z,2.87
2022-10-30T05:01:57.341Z,2.60
2022-10-30T05:04:25.226Z,3.57
2022-10-30T05:06:53.032Z,2.80
2022-10-30T05:09:20.839Z,3.47
2022-10-30T05:11:48.660Z,2.47
2022-10-30T05:14:17.845Z,2.90
2022-10-30T05:16:45.651Z,2.93
2022-10-30T05:19:13.489Z,3.90
2022-10-30T05:21:41.323Z,3.60
2022-10-30T05:24:09.734Z,3.60
2022-10-30T05:26:37.916Z,3.60
2022-10-30T05:29:05.891Z,3.30
2022-10-30T05:31:35.071Z,3.50
2022-10-30T05:34:06.338Z,2.80
2022-10-30T05:36:35.632Z,3.10
2022-10-30T05:39:03.959Z,2.90
2022-10-30T05:41:31.815Z,3.13
2022-10-30T05:43:59.731Z,3.10
2022-10-30T05:46:27.562Z,2.93
2022-10-30T05:48:56.736Z,2.60
2022-10-30T05:51:24.623Z,3.43
2022-10-30T05:53:52.438Z,3.07
2022-10-30T05:56:20.271Z,3.20
2022-10-30T05:58:49.992Z,2.87
2022-10-30T06:01:17.959Z,3.07
2022-10-30T06:03:45.922Z,3.37
2022-10-30T06:06:15.111Z,3.63
2022-10-30T06:08:42.928Z,3.17
2022-10-30T06:11:10.880Z,4.30
2022-10-30T06:13:40.211Z,4.30
2022-10-30T06:16:08.374Z,3.80
2022-10-30T06:18:36.207Z,2.73
2022-10-30T06:21:04.049Z,3.83
2022-10-30T06:23:33.272Z,3.70
2022-10-30T06:26:01.141Z,3.30
2022-10-30T06:28:28.960Z,2.80
2022-10-30T06:30:56.934Z,3.60
2022-10-30T06:33:24.844Z,2.90
2022-10-30T06:35:52.696Z,2.70
2022-10-30T06:38:20.544Z,3.20
2022-10-30T06:40:50.780Z,3.17
2022-10-30T06:43:18.602Z,3.23
2022-10-30T06:45:46.420Z,3.13
2022-10-30T06:48:14.229Z,3.13
2022-10-30T06:50:42.021Z,3.37
2022-10-30T06:53:09.840Z,2.60
2022-10-30T06:55:37.692Z,3.73
2022-10-30T06:58:06.950Z,2.70
2022-10-30T07:00:34.863Z,2.73
2022-10-30T07:03:04.540Z,2.83
2022-10-30T07:05:32.495Z,3.30
2022-10-30T07:08:00.299Z,4.63
2022-10-30T07:10:28.207Z,4.50
2022-10-30T07:12:57.594Z,4.53
2022-10-30T07:15:27.618Z,4.60
2022-10-30T07:18:00.564Z,3.30
2022-10-30T07:20:30.328Z,2.80
2022-10-30T07:22:58.165Z,2.10
2022-10-30T07:25:26.699Z,3.50
2022-10-30T07:27:56.152Z,2.20
2022-10-30T07:30:27.738Z,2.43
2022-10-30T07:33:00.590Z,3.10
2022-10-30T07:35:29.619Z,2.60
2022-10-30T07:37:57.520Z,2.90
2022-10-30T07:40:25.308Z,2.33
2022-10-30T07:42:57.732Z,2.87
2022-10-30T07:45:27.742Z,2.70
2022-10-30T07:47:56.572Z,2.70
2022-10-30T07:50:25.234Z,2.57
2022-10-30T07:52:53.065Z,2.70
2022-10-30T07:55:20.899Z,3.80
2022-10-30T07:57:48.742Z,4.33
2022-10-30T08:00:18.092Z,4.47
2022-10-30T08:02:50.947Z,4.73
2022-10-30T08:05:19.420Z,4.73
2022-10-30T08:07:48.617Z,3.33
2022-10-30T08:10:16.599Z,3.17
2022-10-30T08:12:45.746Z,2.90
2022-10-30T08:15:14.001Z,3.17
2022-10-30T08:17:45.679Z,3.33
2022-10-30T08:20:16.935Z,3.73
2022-10-30T08:22:48.738Z,2.33
2022-10-30T08:25:18.156Z,2.67
2022-10-30T08:27:54.851Z,3.30
2022-10-30T08:30:23.606Z,3.33
2022-10-30T08:32:51.694Z,3.27
2022-10-30T08:35:21.004Z,2.60
2022-10-30T08:37:48.955Z,2.70
2022-10-30T08:40:16.891Z,2.53
2022-10-30T08:42:51.047Z,3.27
2022-10-30T08:45:18.938Z,2.60
2022-10-30T08:47:46.911Z,2.40
2022-10-30T08:50:14.958Z,4.63
2022-10-30T08:52:44.145Z,2.70
2022-10-30T08:55:11.980Z,2.97
2022-10-30T08:57:39.885Z,3.20
2022-10-30T09:00:09.029Z,2.87
2022-10-30T09:02:39.345Z,2.90
2022-10-30T09:05:09.023Z,3.00
2022-10-30T09:07:37.163Z,3.87
2022-10-30T09:10:07.434Z,3.13
2022-10-30T09:12:35.625Z,2.70
2022-10-30T09:15:03.753Z,2.80
2022-10-30T09:17:31.611Z,2.43
2022-10-30T09:19:59.514Z,3.00
2022-10-30T09:22:27.317Z,3.30
2022-10-30T09:24:55.118Z,2.77
2022-10-30T09:27:24.265Z,2.53
2022-10-30T09:29:52.066Z,2.60
2022-10-30T09:32:19.939Z,2.50
2022-10-30T09:34:48.063Z,2.80
2022-10-30T09:37:15.888Z,2.70
2022-10-30T09:39:43.681Z,2.80
2022-10-30T09:42:37.825Z,3.00
2022-10-30T09:45:29.291Z,2.40
2022-10-30T09:48:12.095Z,2.17
2022-10-30T09:50:48.173Z,3.30
2022-10-30T09:53:23.480Z,2.53
2022-10-30T09:55:58.700Z,2.30
2022-10-30T09:58:34.966Z,2.60
2022-10-30T10:01:13.133Z,2.60
2022-10-30T10:03:57.371Z,3.53
2022-10-30T10:06:26.493Z,2.97
2022-10-30T10:08:57.785Z,2.30
2022-10-30T10:11:30.618Z,2.57
2022-10-30T10:14:04.729Z,3.23
2022-10-30T10:16:36.668Z,3.10
2022-10-30T10:19:11.354Z,2.70
2022-10-30T10:21:45.768Z,2.70
2022-10-30T10:24:19.865Z,2.77
2022-10-30T10:26:50.598Z,2.80
2022-10-30T10:29:39.714Z,2.97
2022-10-30T10:32:35.333Z,3.10
2022-10-30T10:35:32.695Z,3.67
2022-10-30T10:38:07.883Z,2.90
2022-10-30T10:40:51.594Z,3.20
2022-10-30T10:43:29.107Z,2.60
2022-10-30T10:46:12.128Z,3.30
2022-10-30T10:48:51.861Z,3.50
2022-10-30T10:51:23.235Z,3.10
2022-10-30T10:53:56.734Z,4.33
2022-10-30T10:56:32.830Z,3.40
2022-10-30T10:59:04.718Z,3.30
2022-10-30T11:01:39.798Z,3.00
2022-10-30T11:04:15.569Z,3.00
2022-10-30T11:06:50.226Z,2.83
2022-10-30T11:09:20.231Z,2.73
2022-10-30T11:11:49.795Z,3.13
2022-10-30T11:14:20.043Z,2.87
2022-10-30T11:17:02.136Z,3.30
2022-10-30T11:19:33.008Z,3.30
2022-10-30T11:22:02.971Z,2.90
2022-10-30T11:24:33.087Z,2.80
2022-10-30T11:27:18.379Z,2.85
2022-10-30T11:29:52.316Z,3.40
2022-10-30T11:32:23.453Z,3.90
2022-10-30T11:35:03.864Z,3.40
2022-10-30T11:37:33.748Z,3.10
2022-10-30T11:40:09.038Z,2.97
2022-10-30T11:42:37.773Z,3.35
2022-10-30T11:45:07.024Z,3.03
2022-10-30T11:47:39.614Z,3.08
2022-10-30T11:50:16.761Z,4.15
2022-10-30T11:52:45.943Z,3.10
2022-10-30T11:55:19.025Z,3.95
2022-10-30T11:57:50.087Z,3.65
2022-10-30T12:00:20.456Z,3.10
2022-10-30T12:02:52.318Z,3.88
2022-10-30T12:05:38.807Z,3.50
2022-10-30T12:08:18.023Z,4.03
2022-10-30T12:10:48.149Z,3.22
2022-10-30T12:13:16.930Z,3.42
2022-10-30T12:15:46.949Z,3.72
2022-10-30T12:18:20.821Z,3.00
2022-10-30T12:20:50.523Z,3.17
2022-10-30T12:23:21.056Z,3.78
2022-10-30T12:25:49.863Z,3.08
2022-10-30T12:28:19.244Z,3.28
2022-10-30T12:30:51.298Z,3.60
2022-10-30T12:33:24.075Z,3.88
2022-10-30T12:35:54.601Z,3.20
2022-10-30T12:38:27.791Z,3.58
2022-10-30T12:41:03.173Z,3.70
2022-10-30T12:43:35.540Z,3.57
2022-10-30T12:46:23.243Z,3.77
2022-10-30T12:48:59.184Z,3.50
2022-10-30T12:51:35.836Z,3.30
2022-10-30T12:54:09.244Z,3.87
2022-10-30T12:56:40.533Z,3.90
2022-10-30T12:59:30.925Z,3.83
2022-10-30T13:02:05.768Z,4.20
2022-10-30T13:04:40.090Z,3.60
2022-10-30T13:07:16.676Z,3.80
2022-10-30T13:09:56.929Z,4.30
2022-10-30T13:12:27.991Z,4.20
2022-10-30T13:15:00.066Z,3.70
2022-10-30T13:17:28.667Z,4.00
2022-10-30T13:19:57.862Z,4.40
2022-10-30T13:22:29.991Z,3.37
2022-10-30T13:25:04.470Z,3.23
2022-10-30T13:27:41.992Z,3.60
2022-10-30T13:30:15.795Z,3.40
2022-10-30T13:32:56.987Z,3.80
2022-10-30T13:35:33.575Z,3.57
2022-10-30T13:38:10.233Z,4.10
2022-10-30T13:40:45.486Z,3.93
2022-10-30T13:43:26.027Z,3.60
2022-10-30T13:46:18.921Z,4.13
2022-10-30T13:48:59.222Z,3.87
2022-10-30T13:51:38.288Z,6.60
2022-10-30T13:54:15.047Z,4.50
2022-10-30T13:56:45.321Z,5.27
2022-10-30T13:59:25.744Z,12.10
2022-10-30T14:02:01.928Z,7.73
2022-10-30T14:04:36.595Z,10.90
2022-10-30T14:07:17.566Z,3.93
2022-10-30T14:09:55.552Z,5.00
2022-10-30T14:12:51.894Z,3.40
2022-10-30T14:15:34.131Z,3.73
2022-10-30T14:18:29.227Z,3.73
2022-10-30T14:20:58.169Z,3.63
2022-10-30T14:23:33.507Z,3.90
2022-10-30T14:26:21.969Z,3.63
2022-10-30T14:28:52.148Z,3.90
2022-10-30T14:31:33.681Z,3.90
2022-10-30T14:34:01.607Z,3.50
2022-10-30T14:36:50.686Z,3.63
2022-10-30T14:39:30.206Z,3.93
2022-10-30T14:42:14.520Z,4.03
2022-10-30T14:44:59.127Z,3.60
2022-10-30T14:47:52.554Z,3.43
2022-10-30T14:50:31.415Z,3.90
2022-10-30T14:53:22.987Z,4.03
2022-10-30T14:56:04.264Z,4.20
2022-10-30T14:58:34.417Z,3.50
2022-10-30T15:01:28.969Z,3.50
2022-10-30T15:04:17.084Z,3.23
2022-10-30T15:06:56.369Z,3.70
2022-10-30T15:09:38.041Z,3.90
2022-10-30T15:12:38.350Z,3.43
2022-10-30T15:15:12.579Z,3.80
2022-10-30T15:17:42.780Z,5.07
2022-10-30T15:20:17.807Z,4.47
2022-10-30T15:22:47.898Z,4.83
2022-10-30T15:25:20.100Z,3.10
2022-10-30T15:27:53.474Z,3.50
2022-10-30T15:30:24.008Z,3.50
2022-10-30T15:32:51.869Z,3.53
2022-10-30T15:35:21.955Z,3.67
2022-10-30T15:38:00.409Z,3.80
2022-10-30T15:40:29.132Z,3.60
2022-10-30T15:43:00.551Z,4.10
2022-10-30T15:45:33.427Z,3.60
2022-10-30T15:48:06.384Z,3.77
2022-10-30T15:50:35.387Z,3.97
2022-10-30T15:53:03.889Z,4.03
2022-10-30T15:55:33.707Z,3.60
2022-10-30T15:58:05.228Z,3.60
2022-10-30T16:00:36.252Z,3.30
2022-10-30T16:03:06.680Z,3.73
2022-10-30T16:05:35.966Z,3.70
2022-10-30T16:08:10.754Z,4.30
2022-10-30T16:10:46.393Z,3.83
2022-10-30T16:13:18.616Z,3.87
2022-10-30T16:15:48.054Z,3.57
2022-10-30T16:18:20.302Z,4.20
2022-10-30T16:20:51.017Z,4.23
2022-10-30T16:23:20.451Z,4.50
2022-10-30T16:25:49.013Z,4.90
2022-10-30T16:28:30.194Z,5.43
2022-10-30T16:31:00.790Z,9.17
2022-10-30T16:33:30.401Z,9.90
2022-10-30T16:35:58.762Z,10.90
2022-10-30T16:38:29.746Z,14.00
2022-10-30T16:40:58.151Z,15.33
2022-10-30T16:43:31.063Z,12.87
2022-10-30T16:46:32.201Z,14.37
2022-10-30T16:49:04.345Z,13.77
2022-10-30T16:51:32.320Z,11.97
2022-10-30T16:54:00.265Z,9.43
2022-10-30T16:56:30.126Z,8.70
2022-10-30T16:59:08.555Z,11.00
2022-10-30T17:01:36.822Z,9.67
2022-10-30T17:04:06.013Z,6.50
2022-10-30T17:06:40.833Z,5.77
2022-10-30T17:09:10.559Z,5.40
2022-10-30T17:11:41.899Z,5.00
2022-10-30T17:14:23.007Z,4.77
2022-10-30T17:16:56.027Z,5.00
2022-10-30T17:19:46.147Z,3.77
2022-10-30T17:22:17.907Z,4.03
2022-10-30T17:24:47.539Z,3.83
2022-10-30T17:27:45.171Z,3.70
2022-10-30T17:30:38.959Z,3.07
2022-10-30T17:33:35.157Z,4.30
2022-10-30T17:36:03.553Z,3.67
2022-10-30T17:38:31.386Z,4.03
2022-10-30T17:41:00.469Z,3.57
2022-10-30T17:43:31.235Z,3.90
2022-10-30T17:46:00.424Z,3.80
2022-10-30T17:48:30.045Z,3.13
2022-10-30T17:50:57.871Z,3.87
2022-10-30T17:53:28.360Z,4.20
2022-10-30T17:56:00.733Z,4.20
2022-10-30T17:58:30.672Z,3.07
2022-10-30T18:01:00.442Z,4.43
2022-10-30T18:03:28.499Z,4.23
2022-10-30T18:05:56.369Z,4.53
2022-10-30T18:08:24.628Z,3.70
2022-10-30T18:10:52.518Z,4.30
2022-10-30T18:13:20.518Z,4.10
2022-10-30T18:15:53.398Z,3.73
2022-10-30T18:18:22.668Z,4.00
2022-10-30T18:20:50.619Z,4.20
2022-10-30T18:23:46.681Z,3.83
2022-10-30T18:26:14.639Z,2.83
2022-10-30T18:28:42.568Z,3.07
2022-10-30T18:31:12.229Z,3.33
2022-10-30T18:33:41.643Z,3.83
2022-10-30T18:36:13.483Z,4.10
2022-10-30T18:38:41.371Z,3.87
2022-10-30T18:41:14.516Z,3.33
2022-10-30T18:43:45.670Z,3.10
2022-10-30T18:46:15.725Z,3.63
2022-10-30T18:48:45.351Z,3.40
2022-10-30T18:51:18.036Z,3.17
2022-10-30T18:53:51.530Z,3.40
2022-10-30T18:56:20.470Z,5.23
2022-10-30T18:58:48.427Z,4.00
2022-10-30T19:01:17.857Z,4.50
2022-10-30T19:03:47.960Z,4.97
2022-10-30T19:06:18.047Z,4.40
2022-10-30T19:08:45.917Z,4.00
2022-10-30T19:11:17.636Z,4.53
2022-10-30T19:13:49.576Z,5.23
2022-10-30T19:16:19.896Z,4.77
2022-10-30T19:18:49.637Z,4.63
2022-10-30T19:21:18.918Z,6.27
2022-10-30T19:23:46.856Z,5.27
2022-10-30T19:26:15.901Z,5.17
2022-10-30T19:28:43.945Z,6.50
2022-10-30T19:31:15.176Z,4.43
2022-10-30T19:33:43.462Z,4.77
2022-10-30T19:36:28.040Z,4.70
2022-10-30T19:38:56.234Z,5.23
2022-10-30T19:41:24.744Z,4.63
2022-10-30T19:43:53.062Z,5.13
2022-10-30T19:46:21.503Z,5.23
2022-10-30T19:48:58.057Z,6.20
2022-10-30T19:51:28.431Z,4.67
2022-10-30T19:53:56.292Z,4.90
2022-10-30T19:56:24.384Z,5.50
2022-10-30T19:58:52.251Z,5.53
2022-10-30T20:01:20.145Z,9.80
2022-10-30T20:03:48.099Z,5.60
2022-10-30T20:06:16.035Z,5.73
2022-10-30T20:08:45.195Z,5.43
2022-10-30T20:11:13.112Z,4.93
2022-10-30T20:13:40.912Z,5.53
2022-10-30T20:16:08.980Z,5.33
2022-10-30T20:18:37.476Z,5.77
2022-10-30T20:21:08.174Z,5.23
2022-10-30T20:23:36.393Z,4.77
2022-10-30T20:26:08.258Z,4.60
2022-10-30T20:28:37.589Z,4.80
2022-10-30T20:31:06.145Z,5.03
2022-10-30T20:33:34.481Z,4.60
2022-10-30T20:36:02.357Z,5.90
2022-10-30T20:38:32.847Z,4.90
2022-10-30T20:41:02.235Z,4.67
2022-10-30T20:43:34.013Z,4.37
2022-10-30T20:46:02.795Z,4.67
2022-10-30T20:48:31.272Z,4.37
2022-10-30T20:51:01.271Z,4.47
2022-10-30T20:53:30.209Z,4.23
2022-10-30T20:55:58.412Z,4.33
2022-10-30T20:58:26.375Z,4.57
2022-10-30T21:00:58.007Z,5.80
2022-10-30T21:03:26.493Z,4.23
2022-10-30T21:05:56.729Z,3.80
2022-10-30T21:08:24.941Z,4.13
2022-10-30T21:10:52.819Z,4.23
2022-10-30T21:13:20.657Z,4.40
2022-10-30T21:15:48.521Z,4.43
2022-10-30T21:18:17.821Z,3.87
2022-10-30T21:20:45.611Z,4.47
2022-10-30T21:23:14.012Z,4.20
2022-10-30T21:25:41.811Z,4.20
2022-10-30T21:28:09.654Z,4.40
2022-10-30T21:30:37.567Z,4.00
2022-10-30T21:33:05.486Z,4.27
2022-10-30T21:35:35.107Z,4.33
2022-10-30T21:38:02.964Z,3.67
2022-10-30T21:40:31.316Z,3.97
2022-10-30T21:43:03.082Z,3.67
2022-10-30T21:45:32.303Z,4.27
2022-10-30T21:48:00.118Z,3.73
2022-10-30T21:50:27.938Z,4.43
2022-10-30T21:52:57.369Z,4.30
2022-10-30T21:55:25.443Z,4.60
2022-10-30T21:57:53.337Z,3.83
2022-10-30T22:00:21.266Z,4.40
2022-10-30T22:02:49.066Z,3.83
2022-10-30T22:05:17.019Z,4.27
2022-10-30T22:07:44.844Z,3.77
2022-10-30T22:10:14.012Z,3.77
2022-10-30T22:12:41.813Z,3.70
2022-10-30T22:15:10.432Z,3.70
2022-10-30T22:17:38.397Z,3.50
2022-10-30T22:20:07.250Z,4.07
2022-10-30T22:22:35.135Z,3.50
2022-10-30T22:25:02.929Z,4.70
2022-10-30T22:27:32.109Z,3.40
2022-10-30T22:29:59.907Z,4.30
2022-10-30T22:32:27.739Z,3.63
2022-10-30T22:34:56.522Z,3.67
2022-10-30T22:37:24.369Z,4.00
2022-10-30T22:39:52.193Z,4.57
2022-10-30T22:42:20.001Z,3.20
2022-10-30T22:44:49.166Z,4.50
2022-10-30T22:47:17.004Z,4.13
2022-10-30T22:49:44.822Z,4.03
2022-10-30T22:52:12.653Z,3.60
2022-10-30T22:54:40.460Z,3.37
2022-10-30T22:57:08.275Z,3.80
2022-10-30T22:59:36.142Z,3.33
2022-10-30T23:02:05.367Z,3.67
2022-10-30T23:04:33.207Z,3.80
2022-10-30T23:07:01.036Z,3.80
2022-10-30T23:09:28.843Z,3.43
2022-10-30T23:11:56.658Z,3.60
2022-10-30T23:14:24.644Z,3.37
2022-10-30T23:16:52.463Z,3.87
2022-10-30T23:19:21.606Z,3.90
2022-10-30T23:21:49.420Z,3.27
2022-10-30T23:24:17.507Z,2.97
2022-10-30T23:26:45.310Z,3.37
2022-10-30T23:29:13.121Z,3.80
2022-10-30T23:31:42.268Z,3.17
2022-10-30T23:34:13.024Z,4.13
2022-10-30T23:36:42.755Z,3.33
2022-10-30T23:39:14.268Z,3.33
2022-10-30T23:41:42.236Z,3.70
2022-10-30T23:44:13.528Z,3.23
2022-10-30T23:46:41.763Z,3.20
2022-10-30T23:49:09.566Z,3.33
2022-10-30T23:51:37.428Z,3.50
2022-10-30T23:54:06.771Z,3.30
2022-10-30T23:56:34.595Z,3.83
2022-10-30T23:59:02.458Z,3.23
